createdAt,value
2022-10-13T00:02:46.309Z,8.02
2022-10-13T00:06:49.344Z,5.93
2022-10-13T00:10:53.204Z,5.45
2022-10-13T00:15:01.243Z,5.63
2022-10-13T00:19:04.290Z,7.38
2022-10-13T00:23:07.317Z,6.93
2022-10-13T00:27:10.794Z,6.07
2022-10-13T00:31:20.227Z,7.38
2022-10-13T00:35:23.504Z,7.55
2022-10-13T00:39:26.733Z,4.97
2022-10-13T00:43:49.766Z,7.50
2022-10-13T00:47:58.468Z,10.93
2022-10-13T00:52:01.777Z,7.57
2022-10-13T00:56:06.992Z,7.07
2022-10-13T01:00:11.519Z,5.97
2022-10-13T01:04:16.558Z,6.00
2022-10-13T01:08:21.477Z,4.55
2022-10-13T01:12:42.169Z,9.10
2022-10-13T01:16:54.852Z,6.43
2022-10-13T01:21:07.611Z,7.38
2022-10-13T01:25:27.083Z,7.55
2022-10-13T01:29:59.937Z,8.40
2022-10-13T01:34:13.021Z,5.55
2022-10-13T01:38:25.224Z,9.38
2022-10-13T01:42:35.615Z,6.38
2022-10-13T01:46:42.097Z,8.52
2022-10-13T01:50:47.994Z,7.22
2022-10-13T01:54:52.612Z,6.57
2022-10-13T01:59:00.679Z,6.68
2022-10-13T02:03:12.624Z,5.75
2022-10-13T02:07:21.594Z,7.63
2022-10-13T02:11:25.775Z,9.13
2022-10-13T02:15:33.864Z,10.23
2022-10-13T02:19:40.013Z,10.10
2022-10-13T02:23:45.114Z,9.20
2022-10-13T02:27:48.485Z,7.68
2022-10-13T02:31:53.787Z,9.73
2022-10-13T02:35:57.013Z,9.80
2022-10-13T02:40:01.697Z,7.95
2022-10-13T02:44:05.140Z,8.57
2022-10-13T02:48:16.708Z,7.35
2022-10-13T02:52:19.917Z,5.97
2022-10-13T02:56:24.621Z,8.13
2022-10-13T03:00:27.827Z,6.55
2022-10-13T03:04:31.103Z,7.22
2022-10-13T03:08:36.908Z,10.07
2022-10-13T03:12:41.379Z,8.13
2022-10-13T03:16:44.606Z,6.68
2022-10-13T03:20:58.160Z,7.80
2022-10-13T03:25:01.354Z,10.70
2022-10-13T03:29:05.785Z,8.13
2022-10-13T03:33:08.770Z,7.93
2022-10-13T03:37:11.771Z,7.75
2022-10-13T03:41:20.122Z,8.85
2022-10-13T03:45:27.536Z,7.72
2022-10-13T03:49:30.910Z,8.55
2022-10-13T03:53:34.702Z,9.30
2022-10-13T03:57:37.925Z,8.07
2022-10-13T04:01:42.290Z,11.00
2022-10-13T04:05:45.699Z,7.15
2022-10-13T04:09:48.866Z,9.10
2022-10-13T04:13:52.449Z,8.38
2022-10-13T04:17:57.039Z,7.97
2022-10-13T04:22:00.214Z,9.55
2022-10-13T04:26:03.659Z,10.35
2022-10-13T04:30:08.244Z,7.40
2022-10-13T04:34:13.510Z,9.82
2022-10-13T04:38:16.742Z,9.15
2022-10-13T04:42:20.068Z,7.13
2022-10-13T04:46:26.672Z,8.40
2022-10-13T04:50:33.690Z,10.40
2022-10-13T04:54:36.766Z,8.30
2022-10-13T04:58:40.780Z,10.10
2022-10-13T05:02:43.846Z,9.18
2022-10-13T05:07:16.074Z,8.95
2022-10-13T05:11:11.895Z,14.07
2022-10-13T05:15:16.991Z,11.40
2022-10-13T05:19:20.283Z,9.25
2022-10-13T05:23:26.799Z,8.70
2022-10-13T05:27:29.669Z,8.60
2022-10-13T05:31:34.368Z,9.57
2022-10-13T05:35:37.470Z,10.10
2022-10-13T05:39:41.974Z,10.85
2022-10-13T05:43:44.901Z,11.73
2022-10-13T05:47:47.996Z,12.20
2022-10-13T05:51:56.530Z,13.70
2022-10-13T05:56:07.075Z,13.90
2022-10-13T06:00:12.880Z,11.77
2022-10-13T06:04:20.707Z,11.18
2022-10-13T06:08:24.096Z,9.48
2022-10-13T06:12:29.178Z,9.85
2022-10-13T06:16:32.382Z,9.75
2022-10-13T06:20:35.648Z,8.98
2022-10-13T06:24:38.866Z,9.02
2022-10-13T06:28:49.807Z,9.18
2022-10-13T06:32:55.261Z,13.15
2022-10-13T06:36:58.547Z,10.07
2022-10-13T06:41:02.215Z,9.38
2022-10-13T06:45:10.783Z,10.43
2022-10-13T06:49:16.656Z,11.02
2022-10-13T06:53:19.735Z,9.80
2022-10-13T06:57:22.773Z,11.20
2022-10-13T07:01:27.235Z,8.75
2022-10-13T07:05:30.555Z,9.43
2022-10-13T07:09:33.775Z,10.27
2022-10-13T07:13:40.065Z,10.15
2022-10-13T07:17:46.536Z,18.15
2022-10-13T07:21:49.831Z,10.55
2022-10-13T07:25:53.127Z,13.00
2022-10-13T07:29:56.333Z,17.67
2022-10-13T07:34:01.180Z,17.30
2022-10-13T07:38:04.672Z,16.05
2022-10-13T07:42:07.658Z,13.93
2022-10-13T07:46:13.246Z,16.85
2022-10-13T07:50:18.179Z,15.23
2022-10-13T07:54:23.774Z,16.33
2022-10-13T07:58:30.018Z,18.95
2022-10-13T08:02:33.350Z,19.80
2022-10-13T08:10:44.893Z,17.23
2022-10-13T08:14:51.572Z,15.30
2022-10-13T08:18:54.995Z,16.48
2022-10-13T08:22:59.436Z,16.25
2022-10-13T08:27:02.676Z,19.80
2022-10-13T08:31:06.093Z,18.45
2022-10-13T08:35:10.522Z,16.77
2022-10-13T08:39:15.113Z,15.38
2022-10-13T08:43:20.532Z,21.20
2022-10-13T08:47:34.283Z,16.92
2022-10-13T08:51:37.461Z,12.38
2022-10-13T08:55:45.537Z,14.00
2022-10-13T08:59:49.349Z,14.32
2022-10-13T09:03:54.709Z,16.13
2022-10-13T09:08:00.194Z,17.13
2022-10-13T09:12:05.377Z,15.45
2022-10-13T09:16:09.186Z,21.55
2022-10-13T09:20:21.106Z,16.30
2022-10-13T09:24:25.971Z,17.40
2022-10-13T09:28:31.993Z,16.67
2022-10-13T09:32:37.084Z,16.77
2022-10-13T09:36:41.721Z,15.55
2022-10-13T09:40:56.868Z,17.88
2022-10-13T09:45:03.911Z,15.23
2022-10-13T09:49:22.446Z,16.80
2022-10-13T09:53:31.240Z,16.48
2022-10-13T09:57:42.585Z,13.43
2022-10-13T10:01:50.927Z,17.75
2022-10-13T10:05:56.262Z,18.13
2022-10-13T10:10:04.935Z,20.48
2022-10-13T10:14:16.965Z,18.00
2022-10-13T10:18:31.031Z,20.50
2022-10-13T10:22:40.032Z,15.30
2022-10-13T10:26:52.873Z,14.35
2022-10-13T10:31:03.087Z,22.75
2022-10-13T10:35:13.828Z,18.75
2022-10-13T10:39:30.624Z,19.15
2022-10-13T10:43:46.968Z,19.00
2022-10-13T10:47:57.787Z,13.93
2022-10-13T10:52:09.377Z,16.80
2022-10-13T10:56:23.940Z,19.83
2022-10-13T11:00:30.436Z,16.05
2022-10-13T11:04:42.628Z,21.27
2022-10-13T11:08:49.174Z,17.77
2022-10-13T11:13:22.340Z,19.48
2022-10-13T11:17:29.538Z,13.90
2022-10-13T11:22:06.337Z,20.50
2022-10-13T11:26:31.198Z,17.85
2022-10-13T11:30:50.210Z,20.20
2022-10-13T11:34:59.303Z,19.20
2022-10-13T11:39:16.610Z,15.82
2022-10-13T11:43:43.126Z,17.95
2022-10-13T11:48:30.867Z,19.17
2022-10-13T11:53:01.140Z,16.20
2022-10-13T11:57:05.871Z,23.45
2022-10-13T12:01:15.842Z,20.35
2022-10-13T12:05:23.566Z,18.35
2022-10-13T12:09:27.142Z,19.83
2022-10-13T12:13:32.309Z,18.50
2022-10-13T12:17:38.957Z,19.05
2022-10-13T12:21:51.207Z,20.55
2022-10-13T12:25:58.409Z,17.90
2022-10-13T12:30:02.111Z,19.98
2022-10-13T12:34:23.789Z,26.23
2022-10-13T12:38:27.060Z,22.25
2022-10-13T12:42:32.690Z,21.65
2022-10-13T12:46:41.729Z,24.25
2022-10-13T12:50:46.182Z,20.40
2022-10-13T12:54:51.635Z,25.17
2022-10-13T12:58:56.623Z,22.42
2022-10-13T13:03:01.381Z,27.70
2022-10-13T13:07:22.893Z,21.20
2022-10-13T13:11:35.575Z,23.35
2022-10-13T13:15:41.566Z,24.30
2022-10-13T13:19:47.196Z,27.17
2022-10-13T13:23:53.989Z,20.60
2022-10-13T13:27:57.465Z,21.00
2022-10-13T13:32:00.461Z,20.85
2022-10-13T13:36:03.956Z,23.00
2022-10-13T13:40:15.159Z,18.75
2022-10-13T13:44:18.280Z,20.45
2022-10-13T13:48:24.445Z,22.70
2022-10-13T13:52:27.540Z,18.35
2022-10-13T13:56:32.121Z,22.75
2022-10-13T14:00:35.383Z,22.02
2022-10-13T14:04:38.526Z,19.75
2022-10-13T14:08:43.198Z,20.02
2022-10-13T14:12:47.809Z,23.52
2022-10-13T14:16:50.966Z,21.13
2022-10-13T14:20:54.362Z,18.27
2022-10-13T14:24:57.313Z,20.80
2022-10-13T14:29:01.678Z,18.10
2022-10-13T14:33:05.018Z,21.08
2022-10-13T14:37:08.494Z,18.65
2022-10-13T14:41:11.458Z,16.92
2022-10-13T14:45:16.791Z,22.02
2022-10-13T14:49:19.766Z,17.52
2022-10-13T14:53:26.637Z,16.55
2022-10-13T14:57:29.612Z,16.40
2022-10-13T15:01:34.675Z,20.67
2022-10-13T15:05:37.722Z,18.23
2022-10-13T15:09:52.981Z,20.50
2022-10-13T15:14:04.478Z,23.67
2022-10-13T15:18:09.052Z,21.67
2022-10-13T15:22:12.121Z,16.15
2022-10-13T15:26:17.681Z,17.40
2022-10-13T15:30:20.867Z,15.18
2022-10-13T15:34:25.212Z,13.98
2022-10-13T15:38:28.384Z,17.02
2022-10-13T15:42:31.488Z,13.30
2022-10-13T15:46:34.697Z,17.08
2022-10-13T15:50:41.119Z,18.08
2022-10-13T15:54:44.433Z,13.90
2022-10-13T15:58:48.000Z,17.73
2022-10-13T16:02:52.513Z,21.45
2022-10-13T16:06:56.948Z,15.55
2022-10-13T16:11:02.305Z,15.55
2022-10-13T16:15:05.912Z,14.15
2022-10-13T16:19:09.129Z,18.77
2022-10-13T16:23:13.670Z,12.38
2022-10-13T16:27:17.146Z,15.20
2022-10-13T16:31:20.160Z,14.95
2022-10-13T16:35:23.131Z,15.25
2022-10-13T16:39:28.465Z,17.20
2022-10-13T16:43:31.619Z,15.05
2022-10-13T16:47:34.875Z,17.15
2022-10-13T16:51:37.867Z,14.88
2022-10-13T16:55:42.479Z,13.98
2022-10-13T16:59:45.623Z,16.95
2022-10-13T17:03:50.307Z,20.13
2022-10-13T17:07:53.511Z,15.45
2022-10-13T17:11:57.864Z,18.63
2022-10-13T17:16:01.263Z,21.08
2022-10-13T17:20:05.288Z,19.70
2022-10-13T17:24:08.696Z,19.58
2022-10-13T17:28:13.189Z,18.75
2022-10-13T17:32:16.405Z,17.80
2022-10-13T17:36:21.039Z,18.10
2022-10-13T17:40:24.274Z,21.20
2022-10-13T17:44:28.770Z,17.98
2022-10-13T17:48:31.904Z,16.58
2022-10-13T17:52:35.064Z,20.70
2022-10-13T17:56:38.469Z,16.45
2022-10-13T18:01:08.082Z,19.25
2022-10-13T18:05:06.750Z,18.40
2022-10-13T18:09:12.746Z,20.48
2022-10-13T18:13:16.267Z,17.95
2022-10-13T18:17:21.319Z,17.90
2022-10-13T18:21:26.900Z,19.40
2022-10-13T18:25:29.930Z,16.55
2022-10-13T18:29:33.380Z,22.55
2022-10-13T18:33:38.074Z,18.35
2022-10-13T18:37:41.097Z,15.63
2022-10-13T18:41:44.962Z,15.13
2022-10-13T18:45:48.010Z,19.40
2022-10-13T18:49:52.743Z,18.13
2022-10-13T18:53:55.822Z,17.10
2022-10-13T18:58:00.462Z,23.33
2022-10-13T19:02:03.440Z,18.00
2022-10-13T19:06:10.343Z,20.42
2022-10-13T19:10:17.208Z,23.00
2022-10-13T19:14:20.735Z,23.55
2022-10-13T19:18:23.943Z,21.95
2022-10-13T19:22:28.857Z,22.05
2022-10-13T19:26:33.875Z,22.95
2022-10-13T19:30:37.206Z,18.73
2022-10-13T19:34:41.090Z,22.40
2022-10-13T19:38:50.275Z,18.45
2022-10-13T19:42:53.664Z,24.00
2022-10-13T19:46:57.056Z,20.60
2022-10-13T19:51:01.667Z,20.58
2022-10-13T19:55:07.010Z,19.05
2022-10-13T19:59:10.266Z,19.25
2022-10-13T20:03:14.190Z,19.52
2022-10-13T20:07:22.389Z,24.38
2022-10-13T20:11:27.377Z,18.13
2022-10-13T20:15:30.433Z,20.50
2022-10-13T20:19:38.373Z,20.10
2022-10-13T20:23:42.102Z,17.60
2022-10-13T20:27:46.788Z,21.65
2022-10-13T20:31:50.165Z,19.55
2022-10-13T20:35:55.523Z,19.80
2022-10-13T20:39:58.738Z,20.02
2022-10-13T20:44:03.768Z,21.85
2022-10-13T20:48:09.392Z,22.77
2022-10-13T20:52:12.500Z,21.50
2022-10-13T20:56:18.217Z,22.65
2022-10-13T21:00:22.869Z,22.23
2022-10-13T21:04:26.456Z,20.48
2022-10-13T21:08:30.660Z,18.73
2022-10-13T21:12:34.054Z,18.55
2022-10-13T21:16:39.494Z,19.95
2022-10-13T21:20:44.795Z,21.40
2022-10-13T21:24:47.743Z,20.02
2022-10-13T21:28:52.019Z,22.10
2022-10-13T21:32:56.603Z,21.33
2022-10-13T21:36:59.678Z,18.92
2022-10-13T21:41:05.143Z,25.40
2022-10-13T21:45:09.933Z,19.90
2022-10-13T21:49:14.540Z,19.42
2022-10-13T21:53:17.665Z,20.85
2022-10-13T21:57:22.298Z,24.13
2022-10-13T22:01:26.246Z,21.50
2022-10-13T22:05:30.882Z,21.70
2022-10-13T22:09:34.044Z,20.55
2022-10-13T22:13:38.145Z,21.98
2022-10-13T22:17:41.472Z,19.50
2022-10-13T22:21:47.850Z,20.30
2022-10-13T22:25:51.419Z,19.27
2022-10-13T22:29:54.808Z,20.27
2022-10-13T22:33:57.891Z,23.63
2022-10-13T22:38:02.252Z,19.75
2022-10-13T22:42:05.507Z,17.13
2022-10-13T22:46:10.725Z,18.30
2022-10-13T22:50:13.917Z,18.70
2022-10-13T22:54:18.531Z,16.70
2022-10-13T22:58:22.024Z,19.13
2022-10-13T23:02:26.106Z,16.52
2022-10-13T23:06:31.268Z,19.70
2022-10-13T23:10:37.477Z,20.75
2022-10-13T23:14:40.503Z,21.05
2022-10-13T23:18:43.934Z,16.60
2022-10-13T23:23:05.034Z,17.42
2022-10-13T23:27:09.810Z,20.05
2022-10-13T23:31:14.569Z,18.38
2022-10-13T23:35:17.786Z,16.05
2022-10-13T23:39:21.186Z,18.27
2022-10-13T23:43:25.707Z,17.02
2022-10-13T23:47:28.806Z,14.48
2022-10-13T23:51:31.993Z,17.65
2022-10-13T23:55:38.616Z,17.70
2022-10-13T23:59:43.028Z,18.05
